Time;durP1;ratioP1;P1;durP2;ratioP2;P2;SDS_P1;SDS_P2;PMS_P1;PMS_P2;Temp;Humidity;BMP_temperature;BMP_pressure;BME280_temperature;BME280_humidity;BME280_pressure;Samples;Min_cycle;Max_cycle;Signal;HPM_P1;HPM_P2
2022/12/24 00:02:01;;;;;;;16.90;12.20;;;;;;;-142.25;100.00;58004.16;4963832;28;20508;-70
2022/12/24 00:04:26;;;;;;;18.10;12.70;;;;;;;-142.25;100.00;58004.16;4964578;28;20050;-70
2022/12/24 00:06:52;;;;;;;19.02;12.50;;;;;;;-142.25;100.00;58004.16;4963333;28;20098;-71
2022/12/24 00:09:18;;;;;;;16.70;12.30;;;;;;;-142.25;100.00;58004.16;4963781;28;20478;-71
2022/12/24 00:11:43;;;;;;;16.73;11.77;;;;;;;-142.25;100.00;58004.16;4959052;28;20380;-71
2022/12/24 00:14:09;;;;;;;12.80;8.65;;;;;;;-142.25;100.00;58004.16;4949370;28;20283;-71
2022/12/24 00:16:35;;;;;;;8.90;6.88;;;;;;;-142.25;100.00;58004.16;4960220;28;20057;-71
2022/12/24 00:19:00;;;;;;;8.50;6.43;;;;;;;-142.25;100.00;58004.16;4959127;28;20061;-71
2022/12/24 00:21:27;;;;;;;9.60;6.95;;;;;;;-142.25;100.00;58004.16;4964899;28;20567;-71
2022/12/24 00:23:53;;;;;;;9.35;7.38;;;;;;;-142.25;100.00;58004.16;4961231;28;20042;-72
2022/12/24 00:26:20;;;;;;;20.67;12.90;;;;;;;-142.25;100.00;58004.16;4963108;28;20604;-72
2022/12/24 00:28:46;;;;;;;22.63;12.98;;;;;;;-142.25;100.00;58004.16;4966372;28;20062;-71
2022/12/24 00:31:16;;;;;;;17.13;12.43;;;;;;;-142.25;100.00;58004.16;4963569;28;20104;-72
2022/12/24 00:33:44;;;;;;;16.08;11.93;;;;;;;-142.25;100.00;58004.16;4961546;28;20043;-71
2022/12/24 00:36:09;;;;;;;18.67;11.93;;;;;;;-142.25;100.00;58004.16;4963702;28;20055;-71
2022/12/24 00:38:35;;;;;;;17.73;12.60;;;;;;;-142.25;100.00;58004.16;4965546;28;20062;-71
2022/12/24 00:41:03;;;;;;;16.35;10.35;;;;;;;-142.25;100.00;58004.16;4963692;28;20047;-71
2022/12/24 00:43:29;;;;;;;12.35;9.10;;;;;;;-142.25;100.00;58004.16;4965978;28;20114;-71
2022/12/24 00:45:56;;;;;;;10.85;7.63;;;;;;;-142.25;100.00;58004.16;4961824;28;20043;-71
2022/12/24 00:48:22;;;;;;;10.23;7.78;;;;;;;-142.25;100.00;58004.16;4960308;28;20042;-72
2022/12/24 00:50:48;;;;;;;8.98;7.07;;;;;;;-142.25;100.00;58004.16;4962274;28;20094;-71
2022/12/24 00:53:16;;;;;;;9.88;7.60;;;;;;;-142.25;100.00;58004.16;4963627;28;20039;-71
2022/12/24 00:55:41;;;;;;;8.35;7.00;;;;;;;-142.25;100.00;58004.16;4964772;28;20065;-71
2022/12/24 00:58:07;;;;;;;14.30;8.63;;;;;;;-142.25;100.00;58004.16;4969464;28;20146;-71
2022/12/24 01:00:33;;;;;;;7.70;4.75;;;;;;;-142.25;100.00;58004.16;4964865;28;20050;-72
2022/12/24 01:02:58;;;;;;;3.55;3.15;;;;;;;-142.25;100.00;58004.16;4964369;28;20034;-70
2022/12/24 01:05:24;;;;;;;1.55;1.45;;;;;;;-142.25;100.00;58004.16;4964256;28;20043;-71
2022/12/24 01:07:50;;;;;;;0.85;0.85;;;;;;;-142.25;100.00;58004.16;4962770;28;20077;-70
2022/12/24 01:10:18;;;;;;;0.95;0.60;;;;;;;-142.25;100.00;58004.16;4963641;28;20046;-71
2022/12/24 01:12:44;;;;;;;0.77;0.77;;;;;;;-142.25;100.00;58004.16;4957185;28;20062;-70
2022/12/24 01:15:12;;;;;;;0.80;0.80;;;;;;;-142.25;100.00;58004.16;4962414;28;20111;-68
2022/12/24 01:17:39;;;;;;;1.00;0.90;;;;;;;-142.25;100.00;58004.16;4975055;28;20042;-70
2022/12/24 01:20:08;;;;;;;0.60;0.60;;;;;;;-142.25;100.00;58004.16;4959498;28;20420;-70
2022/12/24 01:22:34;;;;;;;0.80;0.80;;;;;;;-142.25;100.00;58004.16;4961858;28;20030;-70
2022/12/24 01:25:01;;;;;;;0.77;0.77;;;;;;;-142.25;100.00;58004.16;4959208;28;20089;-70
2022/12/24 01:27:27;;;;;;;1.23;1.13;;;;;;;-142.25;100.00;58004.16;4962321;28;20134;-70
2022/12/24 01:29:52;;;;;;;0.93;0.80;;;;;;;-142.25;100.00;58004.16;4965420;28;20582;-69
2022/12/24 01:32:18;;;;;;;0.88;0.68;;;;;;;-142.25;100.00;58004.16;4962051;28;20099;-70
2022/12/24 01:34:43;;;;;;;0.52;0.52;;;;;;;-142.25;100.00;58004.16;4957655;28;20638;-69
2022/12/24 01:37:09;;;;;;;0.50;0.50;;;;;;;-142.25;100.00;58004.16;4943720;28;20051;-69
2022/12/24 01:39:35;;;;;;;0.70;0.70;;;;;;;-142.25;100.00;58004.16;4961224;28;20610;-71
2022/12/24 01:44:50;;;;;;;1.30;0.77;;;;;;;-142.25;100.00;58004.16;4976341;28;20126;-69
2022/12/24 01:47:29;;;;;;;0.80;0.80;;;;;;;-142.25;100.00;58004.16;4962903;28;20298;-70
2022/12/24 01:50:12;;;;;;;0.90;0.90;;;;;;;-142.25;100.00;58004.16;4964490;28;20041;-70
2022/12/24 01:52:38;;;;;;;0.82;0.75;;;;;;;-142.25;100.00;58004.16;4960311;28;20532;-72
2022/12/24 01:55:13;;;;;;;0.98;0.88;;;;;;;-142.25;100.00;58004.16;4962016;28;20061;-70
2022/12/24 01:57:44;;;;;;;1.00;1.00;;;;;;;-142.25;100.00;58004.16;4963743;28;20046;-70
2022/12/24 02:00:13;;;;;;;1.67;1.58;;;;;;;-142.25;100.00;58004.16;4960025;28;20061;-70
2022/12/24 02:02:42;;;;;;;1.40;1.30;;;;;;;-142.25;100.00;58004.16;4974783;28;20124;-70
2022/12/24 02:05:21;;;;;;;1.80;1.70;;;;;;;-142.25;100.00;58004.16;4961075;28;20051;-70
2022/12/24 02:07:48;;;;;;;1.52;1.42;;;;;;;-142.25;100.00;58004.16;4975654;28;20218;-69
2022/12/24 02:10:16;;;;;;;1.45;1.20;;;;;;;-142.25;100.00;58004.16;4962162;28;20054;-70
2022/12/24 02:12:43;;;;;;;0.82;0.80;;;;;;;-142.25;100.00;58004.16;4958332;28;20059;-70
2022/12/24 02:15:13;;;;;;;1.05;1.05;;;;;;;-142.25;100.00;58004.16;4956149;28;20568;-70
2022/12/24 02:17:57;;;;;;;0.80;0.80;;;;;;;-142.25;100.00;58004.16;4964050;28;20039;-70
2022/12/24 02:21:00;;;;;;;0.68;0.63;;;;;;;-142.25;100.00;58004.16;4966567;28;20332;-70
2022/12/24 02:23:51;;;;;;;0.80;0.80;;;;;;;-142.25;100.00;58004.16;4962273;28;20579;-70
2022/12/24 02:26:20;;;;;;;0.60;0.60;;;;;;;-142.25;100.00;58004.16;4962234;28;20174;-72
2022/12/24 02:29:23;;;;;;;0.70;0.70;;;;;;;-142.25;100.00;58004.16;4966477;28;20074;-70
2022/12/24 02:31:56;;;;;;;0.88;0.88;;;;;;;-142.25;100.00;58004.16;4976167;28;20039;-71
2022/12/24 02:34:42;;;;;;;0.90;0.90;;;;;;;-142.25;100.00;58004.16;4964649;28;20142;-70
2022/12/24 02:37:16;;;;;;;0.80;0.80;;;;;;;-142.25;100.00;58004.16;4962283;28;20059;-70
2022/12/24 02:39:48;;;;;;;0.90;0.90;;;;;;;-142.25;100.00;58004.16;4963339;28;20047;-70
2022/12/24 02:42:19;;;;;;;0.80;0.80;;;;;;;-142.25;100.00;58004.16;4963982;28;20042;-70
2022/12/24 02:44:51;;;;;;;1.13;0.90;;;;;;;-142.25;100.00;58004.16;4964052;28;20137;-70
2022/12/24 02:47:20;;;;;;;0.82;0.70;;;;;;;-142.25;100.00;58004.16;4960819;28;20519;-69
2022/12/24 02:49:47;;;;;;;0.80;0.70;;;;;;;-142.25;100.00;58004.16;4961444;28;20069;-67
2022/12/24 02:52:51;;;;;;;0.80;0.80;;;;;;;-142.25;100.00;58004.16;4956969;28;20099;-69
2022/12/24 02:55:31;;;;;;;0.80;0.80;;;;;;;-142.25;100.00;58004.16;4960504;28;20065;-69
2022/12/24 02:58:28;;;;;;;4.35;1.63;;;;;;;-142.25;100.00;58004.16;4963303;28;20077;-70
2022/12/24 03:01:15;;;;;;;0.77;0.77;;;;;;;-142.25;100.00;58004.16;4964326;28;20574;-69
2022/12/24 03:03:55;;;;;;;1.73;0.82;;;;;;;-142.25;100.00;58004.16;4961698;28;20046;-69
2022/12/24 03:06:38;;;;;;;0.93;0.93;;;;;;;-142.25;100.00;58004.16;4961199;28;20042;-69
2022/12/24 03:09:19;;;;;;;1.30;1.00;;;;;;;-142.25;100.00;58004.16;4962595;28;20034;-69
2022/12/24 03:11:52;;;;;;;1.10;1.10;;;;;;;-142.25;100.00;58004.16;4958889;28;20810;-69
2022/12/24 03:14:20;;;;;;;1.25;1.08;;;;;;;-142.25;100.00;58004.16;4959065;28;20066;-69
2022/12/24 03:16:46;;;;;;;1.40;1.10;;;;;;;-142.25;100.00;58004.16;4962985;28;20046;-70
2022/12/24 03:19:12;;;;;;;1.05;1.05;;;;;;;-142.25;100.00;58004.16;4960920;28;20434;-69
2022/12/24 03:21:41;;;;;;;1.00;1.00;;;;;;;-142.25;100.00;58004.16;4963732;28;20124;-69
2022/12/24 03:24:09;;;;;;;0.95;0.95;;;;;;;-142.25;100.00;58004.16;4964069;28;20040;-69
2022/12/24 03:26:37;;;;;;;1.10;1.10;;;;;;;-142.25;100.00;58004.16;4942801;28;20047;-69
2022/12/24 03:29:06;;;;;;;1.83;1.20;;;;;;;-142.25;100.00;58004.16;4967635;28;20057;-69
2022/12/24 03:32:02;;;;;;;1.20;1.20;;;;;;;-142.25;100.00;58004.16;4966214;28;20047;-69
2022/12/24 03:34:28;;;;;;;1.02;1.02;;;;;;;-142.25;100.00;58004.16;4969099;28;20050;-69
2022/12/24 03:36:54;;;;;;;1.10;1.10;;;;;;;-142.25;100.00;58004.16;4966675;28;20701;-69
2022/12/24 03:39:21;;;;;;;1.20;1.20;;;;;;;-142.25;100.00;58004.16;4965599;28;20058;-68
2022/12/24 03:41:47;;;;;;;1.08;1.08;;;;;;;-142.25;100.00;58004.16;4963325;28;20391;-70
2022/12/24 03:44:13;;;;;;;1.10;1.10;;;;;;;-142.25;100.00;58004.16;4960181;28;20177;-67
2022/12/24 03:46:39;;;;;;;0.90;0.90;;;;;;;-142.25;100.00;58004.16;4963655;28;20042;-70
2022/12/24 03:49:04;;;;;;;1.48;1.00;;;;;;;-142.25;100.00;58004.16;4967231;28;20180;-70
2022/12/24 03:51:32;;;;;;;2.00;1.30;;;;;;;-142.25;100.00;58004.16;4963687;28;20084;-69
2022/12/24 03:53:58;;;;;;;1.38;1.20;;;;;;;-142.25;100.00;58004.16;4959669;28;20114;-68
2022/12/24 03:56:24;;;;;;;0.82;0.82;;;;;;;-142.25;100.00;58004.16;4962139;28;20046;-68
2022/12/24 03:58:50;;;;;;;1.92;1.35;;;;;;;-142.25;100.00;58004.16;4965922;28;20051;-69
2022/12/24 04:01:16;;;;;;;1.77;1.10;;;;;;;-142.25;100.00;58004.16;4965608;28;20031;-69
2022/12/24 04:03:43;;;;;;;5.63;1.20;;;;;;;-142.25;100.00;58004.16;4964573;28;20071;-70
2022/12/24 04:06:16;;;;;;;1.38;1.30;;;;;;;-142.25;100.00;58004.16;4966031;28;20038;-69
2022/12/24 04:08:42;;;;;;;1.48;1.02;;;;;;;-142.25;100.00;58004.16;4954213;28;20090;-69
2022/12/24 04:11:10;;;;;;;1.55;1.05;;;;;;;-142.25;100.00;58004.16;4969552;28;20050;-70
2022/12/24 04:13:36;;;;;;;0.80;0.80;;;;;;;-142.25;100.00;58004.16;4968103;28;20057;-68
2022/12/24 04:16:13;;;;;;;0.70;0.70;;;;;;;-142.25;100.00;58004.16;4966426;28;20375;-68
2022/12/24 04:18:39;;;;;;;0.80;0.80;;;;;;;-142.25;100.00;58004.16;4968397;28;20303;-68
2022/12/24 04:21:07;;;;;;;0.80;0.80;;;;;;;-142.25;100.00;58004.16;4968507;28;20165;-68
2022/12/24 04:23:34;;;;;;;1.75;0.80;;;;;;;-142.25;100.00;58004.16;4965422;28;20043;-68
2022/12/24 04:26:01;;;;;;;0.80;0.80;;;;;;;-142.25;100.00;58004.16;4965303;28;20056;-68
2022/12/24 04:28:28;;;;;;;0.73;0.73;;;;;;;-142.25;100.00;58004.16;4960850;28;20631;-69
2022/12/24 04:31:03;;;;;;;0.70;0.70;;;;;;;-142.25;100.00;58004.16;4953242;28;20347;-70
2022/12/24 04:33:29;;;;;;;0.80;0.80;;;;;;;-142.25;100.00;58004.16;4967505;28;20035;-70
2022/12/24 04:36:00;;;;;;;0.90;0.90;;;;;;;-142.25;100.00;58004.16;4968149;28;20062;-69
2022/12/24 04:38:26;;;;;;;0.90;0.90;;;;;;;-142.25;100.00;58004.16;4963748;28;20944;-69
2022/12/24 04:40:59;;;;;;;0.77;0.77;;;;;;;-142.25;100.00;58004.16;4966756;28;20035;-68
2022/12/24 04:43:26;;;;;;;0.70;0.70;;;;;;;-142.25;100.00;58004.16;4969080;28;20042;-68
2022/12/24 04:45:51;;;;;;;1.85;0.85;;;;;;;-142.25;100.00;58004.16;4965031;28;20046;-70
2022/12/24 04:48:17;;;;;;;0.80;0.80;;;;;;;-142.25;100.00;58004.16;4966033;28;20109;-69
2022/12/24 04:50:42;;;;;;;2.00;0.77;;;;;;;-142.25;100.00;58004.16;4963498;28;20051;-69
2022/12/24 04:53:08;;;;;;;1.20;0.70;;;;;;;-142.25;100.00;58004.16;4964613;28;20465;-70
2022/12/24 04:55:34;;;;;;;1.50;1.08;;;;;;;-142.25;100.00;58004.16;4966739;28;20093;-69
2022/12/24 04:57:59;;;;;;;1.63;0.75;;;;;;;-142.25;100.00;58004.16;4946129;28;20992;-70
2022/12/24 05:00:25;;;;;;;0.90;0.90;;;;;;;-142.25;100.00;58004.16;4962363;28;20104;-70
2022/12/24 05:02:51;;;;;;;0.98;0.90;;;;;;;-142.25;100.00;58004.16;4964913;28;20066;-69
2022/12/24 05:05:17;;;;;;;1.33;1.00;;;;;;;-142.25;100.00;58004.16;4963296;28;20042;-70
2022/12/24 05:07:42;;;;;;;1.20;1.00;;;;;;;-142.25;100.00;58004.16;4965410;28;20051;-70
2022/12/24 05:10:09;;;;;;;1.10;1.10;;;;;;;-142.25;100.00;58004.16;4966462;28;20046;-70
2022/12/24 05:12:35;;;;;;;0.80;0.80;;;;;;;-142.25;100.00;58004.16;4969836;28;20522;-70
2022/12/24 05:15:01;;;;;;;0.90;0.90;;;;;;;-142.25;100.00;58004.16;4964441;28;20067;-70
2022/12/24 05:17:26;;;;;;;2.67;1.00;;;;;;;-142.25;100.00;58004.16;4963985;28;20042;-69
2022/12/24 05:19:52;;;;;;;1.08;0.98;;;;;;;-142.25;100.00;58004.16;4965649;28;20244;-69
2022/12/24 05:27:46;;;;;;;1.55;0.98;;;;;;;-142.25;100.00;58004.16;4967037;28;20047;-70
2022/12/24 05:30:12;;;;;;;1.75;0.98;;;;;;;-142.25;100.00;58004.16;4965551;28;20513;-70
2022/12/24 05:32:37;;;;;;;1.33;1.00;;;;;;;-142.25;100.00;58004.16;4960570;28;20043;-70
2022/12/24 05:35:03;;;;;;;1.85;1.08;;;;;;;-142.25;100.00;58004.16;4959179;28;20086;-70
2022/12/24 05:37:29;;;;;;;1.15;1.05;;;;;;;-142.25;100.00;58004.16;4962613;28;20045;-70
2022/12/24 05:39:54;;;;;;;1.98;1.02;;;;;;;-142.25;100.00;58004.16;4963498;28;20086;-69
2022/12/24 05:42:20;;;;;;;3.47;1.40;;;;;;;-142.25;100.00;58004.16;4966411;28;20169;-70
2022/12/24 05:44:47;;;;;;;0.98;0.98;;;;;;;-142.25;100.00;58004.16;4961296;28;20196;-70
2022/12/24 05:47:13;;;;;;;3.10;0.90;;;;;;;-142.25;100.00;58004.16;4962565;28;20051;-70
2022/12/24 05:49:39;;;;;;;2.97;1.35;;;;;;;-142.25;100.00;58004.16;4965215;28;20043;-70
2022/12/24 05:52:04;;;;;;;2.42;1.20;;;;;;;-142.25;100.00;58004.16;4963947;28;20417;-70
2022/12/24 05:54:31;;;;;;;1.30;1.30;;;;;;;-142.25;100.00;58004.16;4962089;28;20105;-70
2022/12/24 05:56:57;;;;;;;0.90;0.90;;;;;;;-142.25;100.00;58004.16;4962151;28;20054;-69
2022/12/24 05:59:22;;;;;;;1.92;1.35;;;;;;;-142.25;100.00;58004.16;4963170;28;20046;-69
2022/12/24 06:01:48;;;;;;;1.00;1.00;;;;;;;-142.25;100.00;58004.16;4961839;28;20050;-69
2022/12/24 06:04:14;;;;;;;1.17;1.08;;;;;;;-142.25;100.00;58004.16;4961490;28;20042;-69
2022/12/24 06:06:39;;;;;;;1.50;1.05;;;;;;;-142.25;100.00;58004.16;4963994;28;20046;-69
2022/12/24 06:09:05;;;;;;;2.40;1.20;;;;;;;-142.25;100.00;58004.16;4963179;28;20132;-69
2022/12/24 06:11:30;;;;;;;0.95;0.80;;;;;;;-142.25;100.00;58004.16;4965080;28;20047;-70
2022/12/24 06:13:56;;;;;;;0.60;0.60;;;;;;;-142.25;100.00;58004.16;4963652;28;20051;-72
2022/12/24 06:16:23;;;;;;;1.00;1.00;;;;;;;-142.25;100.00;58004.16;4966715;28;20168;-71
2022/12/24 06:18:51;;;;;;;0.77;0.77;;;;;;;-142.25;100.00;58004.16;4966057;28;20046;-71
2022/12/24 06:21:17;;;;;;;0.55;0.55;;;;;;;-142.25;100.00;58004.16;4961188;28;20081;-70
2022/12/24 06:23:44;;;;;;;0.55;0.55;;;;;;;-142.25;100.00;58004.16;4963665;28;20031;-71
2022/12/24 06:26:16;;;;;;;0.93;0.88;;;;;;;-142.25;100.00;58004.16;4964156;28;20411;-70
2022/12/24 06:28:43;;;;;;;0.85;0.63;;;;;;;-142.25;100.00;58004.16;4964347;28;20422;-70
2022/12/24 06:31:12;;;;;;;1.05;0.75;;;;;;;-142.25;100.00;58004.16;4963545;28;20708;-69
2022/12/24 06:33:39;;;;;;;0.80;0.80;;;;;;;-142.25;100.00;58004.16;4960246;28;20384;-70
2022/12/24 06:36:11;;;;;;;0.82;0.82;;;;;;;-142.25;100.00;58004.16;4960211;28;20066;-71
2022/12/24 06:38:36;;;;;;;1.08;0.80;;;;;;;-142.25;100.00;58004.16;4964160;28;20042;-71
2022/12/24 06:41:08;;;;;;;0.85;0.85;;;;;;;-142.25;100.00;58004.16;4967361;28;20058;-71
2022/12/24 06:43:34;;;;;;;0.70;0.70;;;;;;;-142.25;100.00;58004.16;4966333;28;20079;-71
2022/12/24 06:46:01;;;;;;;0.60;0.60;;;;;;;-142.25;100.00;58004.16;4966476;28;20038;-69
2022/12/24 06:48:27;;;;;;;0.85;0.70;;;;;;;-142.25;100.00;58004.16;4963151;28;20516;-72
2022/12/24 06:50:52;;;;;;;0.63;0.60;;;;;;;-142.25;100.00;58004.16;4959671;28;20092;-70
2022/12/24 06:53:18;;;;;;;2.08;1.10;;;;;;;-142.25;100.00;58004.16;4961370;28;20051;-70
2022/12/24 06:55:44;;;;;;;0.77;0.77;;;;;;;-142.25;100.00;58004.16;4963197;28;20051;-66
2022/12/24 06:58:10;;;;;;;1.63;0.75;;;;;;;-142.25;100.00;58004.16;4960936;28;20470;-64
2022/12/24 07:00:36;;;;;;;0.90;0.90;;;;;;;-142.25;100.00;58004.16;4959330;28;20039;-62
2022/12/24 07:03:01;;;;;;;1.38;1.27;;;;;;;-142.25;100.00;58004.16;4961079;28;20035;-71
2022/12/24 07:05:27;;;;;;;1.98;1.55;;;;;;;-142.25;100.00;58004.16;4959879;28;20092;-69
2022/12/24 07:07:53;;;;;;;3.55;2.17;;;;;;;-142.25;100.00;58004.16;4961619;28;20069;-69
2022/12/24 07:10:19;;;;;;;2.45;1.35;;;;;;;-142.25;100.00;58004.16;4963891;28;20465;-69
2022/12/24 07:12:45;;;;;;;1.73;1.50;;;;;;;-142.25;100.00;58004.16;4960019;28;20051;-68
2022/12/24 07:15:12;;;;;;;2.30;2.00;;;;;;;-142.25;100.00;58004.16;4961515;28;20108;-69
2022/12/24 07:17:38;;;;;;;4.97;3.80;;;;;;;-142.25;100.00;58004.16;4956157;28;20188;-69
2022/12/24 07:20:05;;;;;;;12.82;7.20;;;;;;;-142.25;100.00;58004.16;4958761;28;20047;-67
2022/12/24 07:22:33;;;;;;;3.80;2.13;;;;;;;-142.25;100.00;58004.16;4954875;28;20063;-67
2022/12/24 07:24:59;;;;;;;4.20;2.22;;;;;;;-142.25;100.00;58004.16;4954497;28;20101;-67
2022/12/24 07:27:24;;;;;;;2.80;1.00;;;;;;;-142.25;100.00;58004.16;4960043;28;20069;-67
2022/12/24 07:29:50;;;;;;;1.73;0.95;;;;;;;-142.25;100.00;58004.16;4960363;28;20047;-68
2022/12/24 07:32:16;;;;;;;3.58;1.55;;;;;;;-142.25;100.00;58004.16;4961266;28;20506;-68
2022/12/24 07:34:41;;;;;;;2.25;1.00;;;;;;;-142.25;100.00;58004.16;4961711;28;20031;-68
2022/12/24 07:37:07;;;;;;;1.10;1.10;;;;;;;-142.25;100.00;58004.16;4959983;28;20455;-68
2022/12/24 07:39:33;;;;;;;1.45;1.17;;;;;;;-142.25;100.00;58004.16;4959388;28;20122;-68
2022/12/24 07:41:58;;;;;;;1.25;0.90;;;;;;;-142.25;100.00;58004.16;4959785;28;20965;-68
2022/12/24 07:44:24;;;;;;;1.48;1.20;;;;;;;-142.25;100.00;58004.16;4963143;28;20061;-68
2022/12/24 07:46:50;;;;;;;1.60;0.98;;;;;;;-142.25;100.00;58004.16;4963373;28;20039;-67
2022/12/24 07:49:16;;;;;;;1.20;1.13;;;;;;;-142.25;100.00;58004.16;4960984;28;20038;-67
2022/12/24 07:51:42;;;;;;;3.92;1.00;;;;;;;-142.25;100.00;58004.16;4960958;28;20078;-69
2022/12/24 07:54:07;;;;;;;2.65;1.02;;;;;;;-142.25;100.00;58004.16;4965218;28;20443;-69
2022/12/24 07:56:33;;;;;;;0.90;0.90;;;;;;;-142.25;100.00;58004.16;4957688;28;20389;-68
2022/12/24 07:59:00;;;;;;;1.00;0.90;;;;;;;-142.25;100.00;58004.16;4956300;28;20517;-69
2022/12/24 08:01:26;;;;;;;1.60;0.85;;;;;;;-142.25;100.00;58004.16;4959411;28;20050;-68
2022/12/24 08:03:53;;;;;;;1.50;0.88;;;;;;;-142.25;100.00;58004.16;4960572;28;20047;-69
2022/12/24 08:06:20;;;;;;;1.15;0.90;;;;;;;-142.25;100.00;58004.16;4962104;28;20050;-68
2022/12/24 08:08:45;;;;;;;1.08;0.90;;;;;;;-142.25;100.00;58004.16;4958073;28;20038;-70
2022/12/24 08:11:11;;;;;;;0.77;0.77;;;;;;;-142.25;100.00;58004.16;4960410;28;20478;-68
2022/12/24 08:13:38;;;;;;;1.30;0.85;;;;;;;-142.25;100.00;58004.16;4966317;28;20090;-68
2022/12/24 08:16:04;;;;;;;1.50;1.00;;;;;;;-142.25;100.00;58004.16;4965692;28;20090;-72
2022/12/24 08:18:30;;;;;;;1.80;1.27;;;;;;;-142.25;100.00;58004.16;4967010;28;20031;-70
2022/12/24 08:20:56;;;;;;;0.88;0.88;;;;;;;-142.25;100.00;58004.16;4963702;28;20046;-70
2022/12/24 08:23:21;;;;;;;0.90;0.90;;;;;;;-142.25;100.00;58004.16;4963289;28;20486;-70
2022/12/24 08:25:47;;;;;;;2.42;0.85;;;;;;;-142.25;100.00;58004.16;4960630;28;20086;-72
2022/12/24 08:28:15;;;;;;;1.88;1.00;;;;;;;-142.25;100.00;58004.16;4963676;28;20050;-71
2022/12/24 08:30:41;;;;;;;0.95;0.80;;;;;;;-142.25;100.00;58004.16;4966085;28;20051;-73
2022/12/24 08:33:07;;;;;;;1.58;0.80;;;;;;;-142.25;100.00;58004.16;4961925;28;20042;-72
2022/12/24 08:35:32;;;;;;;1.35;1.00;;;;;;;-142.25;100.00;58004.16;4967308;28;20053;-73
2022/12/24 08:37:58;;;;;;;4.82;0.95;;;;;;;-142.25;100.00;58004.16;4979647;28;20046;-65
2022/12/24 08:40:24;;;;;;;3.30;1.02;;;;;;;-142.25;100.00;58004.16;4963665;28;20165;-67
2022/12/24 08:42:49;;;;;;;3.50;1.00;;;;;;;-142.25;100.00;58004.16;4978376;28;20043;-67
2022/12/24 08:45:15;;;;;;;0.90;0.90;;;;;;;-142.25;100.00;58004.16;4962447;28;20391;-67
2022/12/24 08:47:41;;;;;;;2.67;0.90;;;;;;;-142.25;100.00;58004.16;4963249;28;20350;-69
2022/12/24 08:50:07;;;;;;;3.25;1.42;;;;;;;-142.25;100.00;58004.16;4959407;28;20052;-69
2022/12/24 08:52:33;;;;;;;4.20;1.27;;;;;;;-142.25;100.00;58004.16;4960475;28;20050;-69
2022/12/24 08:54:59;;;;;;;3.33;1.55;;;;;;;-142.25;100.00;58004.16;4961519;28;20071;-69
2022/12/24 08:57:24;;;;;;;2.72;1.40;;;;;;;-142.25;100.00;58004.16;4954704;28;20058;-70
2022/12/24 08:59:50;;;;;;;6.75;1.13;;;;;;;-142.25;100.00;58004.16;4970639;28;20387;-70
2022/12/24 09:02:16;;;;;;;2.40;0.95;;;;;;;-142.25;100.00;58004.16;4962482;28;20047;-70
2022/12/24 09:04:42;;;;;;;1.02;0.90;;;;;;;-142.25;100.00;58004.16;4965060;28;20085;-70
2022/12/24 09:07:08;;;;;;;4.70;1.15;;;;;;;-142.25;100.00;58004.16;4968514;28;20113;-69
2022/12/24 09:09:35;;;;;;;2.53;1.10;;;;;;;-142.25;100.00;58004.16;4962901;28;20047;-73
2022/12/24 09:12:02;;;;;;;3.67;1.23;;;;;;;-142.25;100.00;58004.16;4966914;28;20184;-73
2022/12/24 09:14:28;;;;;;;1.52;1.05;;;;;;;-142.25;100.00;58004.16;4961057;28;20082;-70
2022/12/24 09:16:55;;;;;;;3.42;1.30;;;;;;;-142.25;100.00;58004.16;4957245;28;20058;-72
2022/12/24 09:19:21;;;;;;;1.77;1.67;;;;;;;-142.25;100.00;58004.16;4963165;28;20536;-71
2022/12/24 09:21:46;;;;;;;1.58;1.30;;;;;;;-142.25;100.00;58004.16;4963543;28;20046;-74
2022/12/24 09:24:12;;;;;;;2.28;0.90;;;;;;;-142.25;100.00;58004.16;4963569;28;20101;-72
2022/12/24 09:26:40;;;;;;;3.47;1.35;;;;;;;-142.25;100.00;58004.16;4963962;28;20058;-72
2022/12/24 09:29:05;;;;;;;3.33;1.33;;;;;;;-142.25;100.00;58004.16;4964462;28;20026;-71
2022/12/24 09:31:31;;;;;;;2.70;1.05;;;;;;;-142.25;100.00;58004.16;4965043;28;20051;-69
2022/12/24 09:33:57;;;;;;;1.75;1.60;;;;;;;-142.25;100.00;58004.16;4960472;28;20534;-72
2022/12/24 09:36:23;;;;;;;2.40;1.20;;;;;;;-142.25;100.00;58004.16;4958683;28;20390;-69
2022/12/24 09:38:49;;;;;;;2.50;1.73;;;;;;;-142.25;100.00;58004.16;4960324;28;20273;-69
2022/12/24 09:41:31;;;;;;;1.98;1.50;;;;;;;-142.25;100.00;58004.16;4960662;28;20070;-71
2022/12/24 09:44:19;;;;;;;3.63;1.83;;;;;;;-142.25;100.00;58004.16;4963331;28;20046;-70
2022/12/24 09:46:47;;;;;;;4.10;2.45;;;;;;;-142.25;100.00;58004.16;4957838;28;20069;-70
2022/12/24 09:49:21;;;;;;;6.10;1.30;;;;;;;-142.25;100.00;58004.16;4964274;28;20055;-70
2022/12/24 09:52:03;;;;;;;2.28;1.30;;;;;;;-142.25;100.00;58004.16;4968186;28;20043;-72
2022/12/24 09:54:38;;;;;;;4.30;1.38;;;;;;;-142.25;100.00;58004.16;4964998;28;20046;-72
2022/12/24 09:57:13;;;;;;;4.05;1.92;;;;;;;-142.25;100.00;58004.16;4963012;28;20102;-74
2022/12/24 09:59:44;;;;;;;2.15;1.25;;;;;;;-142.25;100.00;58004.16;4964874;28;20042;-72
2022/12/24 10:02:14;;;;;;;3.65;1.63;;;;;;;-142.25;100.00;58004.16;4960158;28;20043;-72
2022/12/24 10:04:44;;;;;;;6.63;2.13;;;;;;;-142.25;100.00;58004.16;4962842;28;20058;-75
2022/12/24 10:07:10;;;;;;;3.50;1.90;;;;;;;-142.25;100.00;58004.16;4964900;28;20042;-74
2022/12/24 10:09:52;;;;;;;2.85;1.50;;;;;;;-142.25;100.00;58004.16;4962214;28;20045;-70
2022/12/24 10:12:35;;;;;;;2.25;1.63;;;;;;;-142.25;100.00;58004.16;4964016;28;20050;-70
2022/12/24 10:15:45;;;;;;;3.50;1.40;;;;;;;-142.25;100.00;58004.16;4964062;28;20054;-69
2022/12/24 10:18:49;;;;;;;4.25;1.67;;;;;;;-142.25;100.00;58004.16;4935949;28;20684;-71
2022/12/24 10:21:44;;;;;;;3.22;1.40;;;;;;;-142.25;100.00;58004.16;4909329;29;20047;-61
2022/12/24 10:24:09;;;;;;;2.33;1.63;;;;;;;-142.25;100.00;58004.16;4898295;29;20052;-73
2022/12/24 10:26:44;;;;;;;3.80;2.10;;;;;;;-142.25;100.00;58004.16;4905947;29;20076;-70
2022/12/24 10:29:47;;;;;;;3.20;1.40;;;;;;;-142.25;100.00;58004.16;4905071;29;20052;-70
2022/12/24 10:32:21;;;;;;;5.65;1.75;;;;;;;-142.25;100.00;58004.16;4878054;29;20200;-70
2022/12/24 10:35:13;;;;;;;5.13;2.42;;;;;;;-142.25;100.00;58004.16;4894303;29;20134;-72
2022/12/24 10:37:39;;;;;;;3.13;1.50;;;;;;;-142.25;100.00;58004.16;4870802;29;20136;-70
2022/12/24 10:40:13;;;;;;;4.63;1.80;;;;;;;-142.25;100.00;58004.16;4872758;29;20061;-73
2022/12/24 10:42:43;;;;;;;4.55;1.85;;;;;;;-142.25;100.00;58004.16;4874592;29;20065;-71
2022/12/24 10:45:21;;;;;;;2.78;1.73;;;;;;;-142.25;100.00;58004.16;4852447;29;20053;-67
2022/12/24 10:47:50;;;;;;;2.20;1.48;;;;;;;-142.25;100.00;58004.16;4871688;29;20112;-65
2022/12/24 10:50:27;;;;;;;3.75;1.45;;;;;;;-142.25;100.00;58004.16;4863206;29;20373;-67
2022/12/24 10:52:59;;;;;;;2.80;1.33;;;;;;;-142.25;100.00;58004.16;4859646;29;20156;-68
2022/12/24 10:55:28;;;;;;;7.05;2.10;;;;;;;-142.25;100.00;58004.16;4895867;29;20426;-70
2022/12/24 10:58:03;;;;;;;4.65;2.08;;;;;;;-142.25;100.00;58004.16;4917798;29;20051;-69
2022/12/24 11:00:30;;;;;;;4.32;1.85;;;;;;;-142.25;100.00;58004.16;4919906;29;20150;-69
2022/12/24 11:03:32;;;;;;;2.60;1.75;;;;;;;-142.25;100.00;58004.16;4919531;29;20142;-73
2022/12/24 11:06:12;;;;;;;7.07;2.35;;;;;;;-142.25;100.00;58004.16;4913184;29;20055;-72
2022/12/24 11:08:42;;;;;;;3.83;2.00;;;;;;;-142.25;100.00;58004.16;4924453;29;20066;-73
2022/12/24 11:11:17;;;;;;;5.28;1.70;;;;;;;-142.25;100.00;58004.16;4924740;29;20052;-73
2022/12/24 11:13:50;;;;;;;2.80;1.60;;;;;;;-142.25;100.00;58004.16;4930011;28;20405;-73
2022/12/24 11:16:21;;;;;;;6.85;1.88;;;;;;;-142.25;100.00;58004.16;4964338;28;20118;-72
2022/12/24 11:18:54;;;;;;;3.47;1.50;;;;;;;-142.25;100.00;58004.16;4966881;28;20180;-72
2022/12/24 11:21:23;;;;;;;4.45;1.40;;;;;;;-142.25;100.00;58004.16;4969230;28;20054;-75
2022/12/24 11:23:58;;;;;;;1.88;1.65;;;;;;;-142.25;100.00;58004.16;4965620;28;20051;-73
2022/12/24 11:26:27;;;;;;;1.90;1.50;;;;;;;-142.25;100.00;58004.16;4961829;28;20049;-72
2022/12/24 11:29:11;;;;;;;3.17;1.90;;;;;;;-142.25;100.00;58004.16;4963114;28;20157;-72